Time;durP1;ratioP1;P1;durP2;ratioP2;P2;SDS_P1;SDS_P2;PMS_P1;PMS_P2;Temp;Humidity;BMP_temperature;BMP_pressure;BME280_temperature;BME280_humidity;BME280_pressure;Samples;Min_cycle;Max_cycle;Signal;HPM_P1;HPM_P2
2022/04/19 00:00:42;;;;;;;3.88;2.80;;;;;;;21.92;34.63;101717.59;5066771;28;20060;-67
2022/04/19 00:03:09;;;;;;;3.35;2.72;;;;;;;21.84;34.72;101709.63;5069120;28;20669;-66
2022/04/19 00:05:38;;;;;;;3.30;2.70;;;;;;;21.89;34.59;101718.72;5074191;28;20040;-66
2022/04/19 00:08:06;;;;;;;3.40;2.70;;;;;;;21.86;34.43;101710.28;5069511;28;20036;-67
2022/04/19 00:10:32;;;;;;;4.63;3.33;;;;;;;21.87;34.52;101709.28;5067473;28;20820;-66
2022/04/19 00:12:59;;;;;;;4.40;3.20;;;;;;;21.87;34.42;101707.47;5069888;28;20043;-66
2022/04/19 00:15:29;;;;;;;4.50;2.80;;;;;;;21.84;34.57;101715.78;5070959;28;20141;-67
2022/04/19 00:17:57;;;;;;;3.15;2.80;;;;;;;21.88;34.36;101708.28;5072950;28;20046;-67
2022/04/19 00:20:24;;;;;;;5.07;2.88;;;;;;;21.87;34.57;101706.63;5065892;28;20055;-66
2022/04/19 00:22:49;;;;;;;3.83;3.13;;;;;;;21.84;34.63;101707.00;5068964;28;20044;-66
2022/04/19 00:25:16;;;;;;;3.35;2.90;;;;;;;21.85;34.71;101706.81;5067297;28;20039;-67
2022/04/19 00:27:42;;;;;;;3.45;3.00;;;;;;;21.83;34.42;101695.56;5065815;28;20032;-67
2022/04/19 00:30:08;;;;;;;3.55;2.78;;;;;;;21.77;34.34;101684.81;5065201;28;20035;-67
2022/04/19 00:32:34;;;;;;;4.35;3.17;;;;;;;21.81;34.74;101696.72;5066789;28;20036;-67
2022/04/19 00:35:04;;;;;;;4.65;3.08;;;;;;;21.83;34.76;101687.59;5049466;28;20110;-67
2022/04/19 00:37:30;;;;;;;4.15;2.90;;;;;;;21.79;34.52;101678.34;5067557;28;20032;-66
2022/04/19 00:39:58;;;;;;;3.85;2.80;;;;;;;21.80;34.33;101687.97;5066298;28;20031;-67
2022/04/19 00:42:28;;;;;;;4.20;2.65;;;;;;;21.81;34.54;101686.97;5067984;28;20123;-66
2022/04/19 00:45:05;;;;;;;4.28;3.53;;;;;;;21.82;34.43;101687.78;5050017;28;20063;-67
2022/04/19 00:47:32;;;;;;;3.90;2.90;;;;;;;21.81;34.36;101684.31;5070486;28;20067;-67
2022/04/19 00:50:03;;;;;;;4.45;3.10;;;;;;;21.75;34.57;101678.88;5065240;28;20105;-67
2022/04/19 00:52:37;;;;;;;3.50;2.67;;;;;;;21.72;34.67;101674.72;5054661;28;20902;-67
2022/04/19 00:55:04;;;;;;;3.72;3.03;;;;;;;21.73;34.48;101684.34;5064452;28;20036;-67
2022/04/19 00:57:37;;;;;;;3.50;2.65;;;;;;;21.70;34.53;101668.75;5053438;28;20032;-67
2022/04/19 01:00:08;;;;;;;4.53;3.20;;;;;;;21.68;34.51;101666.28;5049264;28;20068;-67
2022/04/19 01:02:39;;;;;;;4.45;3.17;;;;;;;21.71;34.60;101681.00;5049440;28;20032;-66
2022/04/19 01:05:08;;;;;;;4.47;2.92;;;;;;;21.68;34.68;101668.09;5047227;28;20027;-67
2022/04/19 01:07:36;;;;;;;4.03;3.10;;;;;;;21.69;34.79;101675.88;5049120;28;20675;-66
2022/04/19 01:10:03;;;;;;;4.20;3.20;;;;;;;21.70;34.54;101676.72;5062377;28;20032;-67
2022/04/19 01:15:16;;;;;;;4.07;3.03;;;;;;;21.68;34.76;101678.72;5055001;28;20040;-67
2022/04/19 01:18:12;;;;;;;3.92;3.38;;;;;;;21.65;34.66;101679.06;5057102;28;20039;-66
2022/04/19 01:20:41;;;;;;;4.90;3.60;;;;;;;21.67;34.61;101679.72;5051913;28;20032;-67
2022/04/19 01:23:11;;;;;;;3.97;2.95;;;;;;;21.65;34.69;101679.88;5051468;28;20044;-66
2022/04/19 01:25:36;;;;;;;4.30;3.42;;;;;;;21.65;34.86;101679.06;5053034;28;20039;-67
2022/04/19 01:28:03;;;;;;;4.97;3.00;;;;;;;21.53;34.65;101649.44;5056947;28;20042;-68
2022/04/19 01:30:31;;;;;;;3.25;2.83;;;;;;;21.63;34.82;101681.06;5057993;28;20036;-66
2022/04/19 01:32:57;;;;;;;4.55;3.20;;;;;;;21.64;34.55;101672.94;5057738;28;20028;-67
2022/04/19 01:35:23;;;;;;;3.80;2.75;;;;;;;21.64;34.64;101674.75;5068289;28;20044;-67
2022/04/19 01:37:53;;;;;;;4.50;3.13;;;;;;;21.62;34.77;101672.28;5053633;28;20043;-66
2022/04/19 01:40:26;;;;;;;3.90;3.03;;;;;;;21.64;34.42;101669.47;5064831;28;20063;-67
2022/04/19 01:42:54;;;;;;;4.18;3.08;;;;;;;21.61;34.56;101673.28;5056922;28;20510;-66
2022/04/19 01:45:23;;;;;;;4.32;3.38;;;;;;;21.61;34.69;101675.94;5054914;28;20040;-67
2022/04/19 01:47:51;;;;;;;3.95;3.00;;;;;;;21.57;34.67;101664.03;5056834;28;20039;-67
2022/04/19 01:50:18;;;;;;;4.50;3.22;;;;;;;21.60;34.81;101665.50;5052721;28;20079;-66
2022/04/19 01:52:46;;;;;;;4.07;3.20;;;;;;;21.58;34.62;101670.97;5054664;28;20067;-66
2022/04/19 01:55:20;;;;;;;3.80;3.28;;;;;;;21.61;34.60;101667.97;5054330;28;20485;-66
2022/04/19 01:57:49;;;;;;;4.00;3.13;;;;;;;21.57;34.72;101658.72;5052053;28;20123;-67
2022/04/19 02:00:15;;;;;;;4.22;3.35;;;;;;;21.56;34.52;101662.38;5051572;28;20048;-66
2022/04/19 02:02:43;;;;;;;3.80;3.20;;;;;;;21.57;34.80;101664.03;5070325;28;20454;-67
2022/04/19 02:05:11;;;;;;;4.70;3.35;;;;;;;21.55;34.74;101659.91;5040002;28;20148;-66
2022/04/19 02:07:45;;;;;;;4.60;3.25;;;;;;;21.56;34.89;101661.53;5053784;28;20051;-66
2022/04/19 02:10:13;;;;;;;3.75;3.13;;;;;;;21.56;34.64;101665.03;5053712;28;20610;-67
2022/04/19 02:12:39;;;;;;;4.45;3.10;;;;;;;21.54;34.46;101664.34;5055007;28;20043;-67
2022/04/19 02:15:27;;;;;;;5.03;3.58;;;;;;;21.54;34.64;101659.03;5035288;28;20043;-67
2022/04/19 02:17:55;;;;;;;4.07;3.22;;;;;;;21.54;34.75;101659.03;5053268;28;20032;-66
2022/04/19 02:20:21;;;;;;;3.15;2.80;;;;;;;21.53;34.76;101657.38;5074366;28;20059;-66
2022/04/19 02:22:47;;;;;;;4.97;3.58;;;;;;;21.54;34.66;101656.38;5052317;28;20043;-66
2022/04/19 02:25:14;;;;;;;6.60;3.70;;;;;;;21.53;34.83;101661.88;5064806;28;20039;-66
2022/04/19 02:27:41;;;;;;;4.68;3.60;;;;;;;21.51;34.85;101663.88;5065810;28;20123;-66
2022/04/19 02:30:14;;;;;;;5.22;3.42;;;;;;;21.49;34.48;101660.56;5058655;28;20497;-66
2022/04/19 02:32:48;;;;;;;5.20;3.63;;;;;;;21.42;34.57;101663.06;5055781;28;20146;-66
2022/04/19 02:35:18;;;;;;;3.60;3.10;;;;;;;21.48;34.63;101670.34;5061726;28;20080;-66
2022/04/19 02:37:53;;;;;;;4.85;3.35;;;;;;;21.50;34.70;101673.63;5052113;28;20040;-67
2022/04/19 02:40:24;;;;;;;5.05;3.85;;;;;;;21.46;34.81;101671.50;5047087;28;20054;-66
2022/04/19 02:42:54;;;;;;;3.50;2.80;;;;;;;21.47;34.80;101667.84;5059904;28;20040;-66
2022/04/19 02:45:21;;;;;;;4.50;3.30;;;;;;;21.47;34.57;101679.28;5053616;28;20082;-66
2022/04/19 02:47:47;;;;;;;3.92;3.13;;;;;;;21.46;34.57;101674.16;5050435;28;20039;-66
2022/04/19 02:50:15;;;;;;;4.65;3.47;;;;;;;21.43;34.62;101664.72;5053385;28;20039;-66
2022/04/19 02:52:40;;;;;;;5.45;3.15;;;;;;;21.46;34.63;101668.84;5052402;28;20510;-66
2022/04/19 02:55:07;;;;;;;5.68;3.25;;;;;;;21.40;34.79;101665.91;5034133;28;20041;-66
2022/04/19 02:57:33;;;;;;;5.22;3.47;;;;;;;21.42;34.75;101671.84;5048984;28;20043;-68
2022/04/19 02:59:59;;;;;;;4.65;3.67;;;;;;;21.42;34.90;101678.97;5051114;28;20045;-68
2022/04/19 03:02:25;;;;;;;6.20;3.58;;;;;;;21.42;34.82;101681.63;5049917;28;20060;-68
2022/04/19 03:04:51;;;;;;;4.38;3.33;;;;;;;21.42;34.58;101674.50;5046590;28;20526;-68
2022/04/19 03:07:17;;;;;;;4.53;3.40;;;;;;;21.37;34.59;101676.00;5049406;28;20032;-69
2022/04/19 03:09:43;;;;;;;4.78;3.58;;;;;;;21.38;34.82;101672.38;5049241;28;20743;-68
2022/04/19 03:12:14;;;;;;;4.93;3.47;;;;;;;21.35;34.60;101673.50;5049639;28;20029;-67
2022/04/19 03:14:52;;;;;;;4.57;3.47;;;;;;;21.28;34.78;101669.88;5051413;28;20727;-66
2022/04/19 03:17:18;;;;;;;5.45;3.85;;;;;;;21.29;34.84;101676.00;5066845;28;20032;-66
2022/04/19 03:19:44;;;;;;;6.15;3.60;;;;;;;21.28;35.03;101683.13;5051380;28;20048;-66
2022/04/19 03:22:10;;;;;;;4.85;3.63;;;;;;;21.25;34.91;101680.00;5053577;28;20402;-66
2022/04/19 03:30:09;;;;;;;4.93;3.38;;;;;;;21.25;34.90;101674.69;5063312;28;20567;-66
2022/04/19 03:32:36;;;;;;;5.07;3.00;;;;;;;21.15;35.04;101664.25;5052705;28;20041;-66
2022/04/19 03:35:03;;;;;;;4.72;3.35;;;;;;;21.25;35.01;101680.81;5049303;28;20052;-66
2022/04/19 03:37:30;;;;;;;4.70;3.63;;;;;;;21.25;35.01;101685.28;5049301;28;20733;-68
2022/04/19 03:39:56;;;;;;;5.10;3.20;;;;;;;21.22;35.02;101675.00;5045256;28;20071;-68
2022/04/19 03:42:22;;;;;;;4.47;3.47;;;;;;;21.25;34.76;101686.13;5051116;28;20497;-69
2022/04/19 03:44:48;;;;;;;4.78;3.40;;;;;;;21.25;34.76;101677.34;5061704;28;20051;-66
2022/04/19 03:47:15;;;;;;;4.78;3.45;;;;;;;21.24;34.73;101675.66;5059467;28;20033;-67
2022/04/19 03:49:41;;;;;;;4.10;3.38;;;;;;;21.23;34.72;101671.38;5049561;28;20041;-66
2022/04/19 03:52:07;;;;;;;4.30;3.33;;;;;;;21.23;34.96;101676.66;5049853;28;20064;-67
2022/04/19 03:54:37;;;;;;;4.88;3.58;;;;;;;21.23;34.80;101682.78;5050179;28;20123;-67
2022/04/19 03:57:07;;;;;;;5.82;3.13;;;;;;;21.19;34.67;101678.00;5048200;28;20045;-66
2022/04/19 03:59:37;;;;;;;4.50;3.20;;;;;;;21.23;34.92;101677.50;5054122;28;20682;-67
2022/04/19 04:02:04;;;;;;;4.65;3.38;;;;;;;21.20;34.73;101680.47;5052093;28;20086;-66
2022/04/19 04:04:34;;;;;;;4.18;3.40;;;;;;;21.23;34.77;101684.63;5051131;28;20040;-66
2022/04/19 04:07:01;;;;;;;5.05;3.60;;;;;;;21.19;34.90;101686.78;5048164;28;20036;-68
2022/04/19 04:09:32;;;;;;;4.43;3.35;;;;;;;21.18;34.82;101686.91;5062628;28;20032;-66
2022/04/19 04:12:01;;;;;;;4.38;3.10;;;;;;;21.20;34.75;101683.13;5047657;28;20123;-66
2022/04/19 04:14:27;;;;;;;4.80;3.28;;;;;;;21.19;34.77;101692.06;5061268;28;20141;-67
2022/04/19 04:16:53;;;;;;;3.33;2.85;;;;;;;21.21;34.80;101692.72;5049808;28;20171;-66
2022/04/19 04:19:18;;;;;;;4.28;3.42;;;;;;;21.17;34.76;101694.03;5049906;28;20048;-66
2022/04/19 04:21:44;;;;;;;4.43;3.15;;;;;;;21.18;34.99;101692.22;5052471;28;20062;-66
2022/04/19 04:24:09;;;;;;;4.60;3.70;;;;;;;21.18;34.72;101695.69;5051804;28;20039;-66
2022/04/19 04:26:41;;;;;;;4.45;3.22;;;;;;;21.16;34.78;101688.91;5049934;28;21010;-68
2022/04/19 04:29:08;;;;;;;4.57;3.28;;;;;;;21.14;34.81;101683.78;5061678;28;20231;-69
2022/04/19 04:31:33;;;;;;;5.05;3.47;;;;;;;21.20;34.67;101691.06;5051909;28;20440;-69
2022/04/19 04:34:00;;;;;;;4.38;3.40;;;;;;;21.15;34.79;101696.03;5046419;28;20048;-69
2022/04/19 04:36:27;;;;;;;4.57;3.35;;;;;;;21.12;34.70;101702.50;5048827;28;20036;-68
2022/04/19 04:38:52;;;;;;;3.78;3.15;;;;;;;21.15;34.63;101698.69;5050021;28;20045;-69
2022/04/19 04:41:30;;;;;;;5.07;3.30;;;;;;;21.12;34.73;101697.19;5051093;28;20044;-68
2022/04/19 04:43:56;;;;;;;4.30;3.25;;;;;;;21.12;34.72;101697.19;5060392;28;20064;-68
2022/04/19 04:51:49;;;;;;;4.35;3.33;;;;;;;21.10;34.82;101698.34;5059579;28;20044;-68
2022/04/19 04:54:15;;;;;;;4.28;3.25;;;;;;;21.07;34.92;101696.88;5051622;28;20049;-68
2022/04/19 04:56:40;;;;;;;4.85;3.45;;;;;;;21.09;34.76;101697.53;5049353;28;20036;-68
2022/04/19 04:59:06;;;;;;;5.22;3.10;;;;;;;21.10;34.84;101699.19;5045413;28;20036;-68
2022/04/19 05:01:33;;;;;;;5.00;3.17;;;;;;;21.10;34.81;101696.53;5052650;28;20067;-68
2022/04/19 05:03:59;;;;;;;4.28;3.28;;;;;;;21.11;34.69;101694.72;5057758;28;20070;-69
2022/04/19 05:06:25;;;;;;;4.32;3.53;;;;;;;21.10;34.73;101693.88;5052914;28;20127;-69
2022/04/19 05:08:51;;;;;;;4.00;3.40;;;;;;;21.07;34.90;101696.88;5051742;28;20040;-68
2022/04/19 05:11:17;;;;;;;4.97;3.05;;;;;;;21.05;34.73;101693.56;5049921;28;20041;-68
2022/04/19 05:13:43;;;;;;;4.13;3.20;;;;;;;21.04;35.01;101693.75;5060961;28;20036;-68
2022/04/19 05:16:10;;;;;;;5.22;3.38;;;;;;;21.01;34.89;101686.13;5048842;28;20035;-68
2022/04/19 05:18:35;;;;;;;5.50;3.13;;;;;;;21.01;34.92;101700.19;5050528;28;20393;-68
2022/04/19 05:21:02;;;;;;;3.42;2.78;;;;;;;20.94;34.83;101693.91;5063771;28;20036;-68
2022/04/19 05:23:27;;;;;;;4.15;3.13;;;;;;;20.99;35.02;101703.97;5052507;28;20091;-68
2022/04/19 05:25:53;;;;;;;5.20;3.38;;;;;;;20.95;35.11;101698.19;5053031;28;20049;-68
2022/04/19 05:28:20;;;;;;;4.78;3.28;;;;;;;20.95;35.03;101697.38;5052530;28;20051;-68
2022/04/19 05:30:50;;;;;;;4.88;3.22;;;;;;;20.94;35.04;101711.59;5051554;28;22181;-68
2022/04/19 05:33:16;;;;;;;5.07;3.40;;;;;;;20.94;35.21;101709.78;5053187;28;20060;-68
2022/04/19 05:35:42;;;;;;;3.95;3.10;;;;;;;20.88;35.22;101710.44;5054067;28;20095;-68
2022/04/19 05:38:07;;;;;;;5.50;3.10;;;;;;;20.91;35.15;101714.59;5072250;28;20150;-68
2022/04/19 05:40:33;;;;;;;5.43;3.10;;;;;;;21.00;34.91;101721.53;5066868;28;20039;-68
2022/04/19 05:43:01;;;;;;;4.53;3.10;;;;;;;21.22;34.73;101715.56;5051799;28;20470;-67
2022/04/19 05:45:27;;;;;;;4.00;3.15;;;;;;;21.87;34.03;101722.56;5038207;28;20074;-67
2022/04/19 05:47:53;;;;;;;4.60;2.97;;;;;;;22.45;33.32;101714.19;5052040;28;20163;-67
2022/04/19 05:50:19;;;;;;;4.93;3.17;;;;;;;22.77;32.69;101717.59;5056502;28;20043;-67
2022/04/19 05:52:45;;;;;;;3.60;2.80;;;;;;;22.90;32.82;101718.69;5052422;28;20074;-66
2022/04/19 05:55:14;;;;;;;4.97;3.30;;;;;;;22.91;32.71;101730.13;5059361;28;20131;-66
2022/04/19 05:57:40;;;;;;;4.65;3.30;;;;;;;22.69;32.66;101709.69;5057913;28;20563;-66
2022/04/19 06:00:07;;;;;;;3.92;2.90;;;;;;;22.69;33.23;101720.31;5068273;28;20037;-67
2022/04/19 06:05:24;;;;;;;4.45;3.10;;;;;;;22.51;33.45;101729.41;5060466;28;20527;-67
2022/04/19 06:07:52;;;;;;;4.43;3.10;;;;;;;22.39;33.57;101729.97;5055384;28;20039;-67
2022/04/19 06:10:18;;;;;;;4.10;2.92;;;;;;;22.24;33.79;101738.66;5041429;28;20859;-67
2022/04/19 06:12:48;;;;;;;4.25;3.03;;;;;;;22.11;34.16;101740.25;5054491;28;20119;-66
2022/04/19 06:15:15;;;;;;;3.47;2.63;;;;;;;22.05;34.33;101740.91;5054980;28;20453;-67
2022/04/19 06:17:41;;;;;;;4.72;2.85;;;;;;;21.98;34.18;101740.75;5078797;28;20040;-67
2022/04/19 06:20:22;;;;;;;8.18;2.90;;;;;;;21.88;34.21;101727.69;5060253;28;20569;-67
2022/04/19 06:22:48;;;;;;;5.70;3.00;;;;;;;21.93;34.29;101735.97;5056906;28;20035;-67
2022/04/19 06:25:16;;;;;;;3.80;2.90;;;;;;;21.95;34.30;101747.22;5053948;28;20051;-66
2022/04/19 06:27:42;;;;;;;5.25;2.97;;;;;;;21.91;34.47;101737.16;5064252;28;20035;-66
2022/04/19 06:30:09;;;;;;;3.97;3.15;;;;;;;21.91;34.42;101737.97;5064058;28;20093;-66
2022/04/19 06:32:36;;;;;;;4.45;2.88;;;;;;;21.89;34.36;101742.59;5068573;28;20028;-65
2022/04/19 06:35:03;;;;;;;3.65;2.88;;;;;;;21.83;34.79;101731.84;5042177;28;20052;-65
2022/04/19 06:37:31;;;;;;;3.78;2.95;;;;;;;21.97;34.46;101739.09;5059803;28;20161;-65
2022/04/19 06:40:08;;;;;;;4.13;2.90;;;;;;;22.20;34.34;101739.19;5053089;28;20042;-67
2022/04/19 06:42:34;;;;;;;3.83;2.50;;;;;;;22.66;33.44;101732.13;5059853;28;20703;-65
2022/04/19 06:45:18;;;;;;;3.47;2.90;;;;;;;22.83;33.27;101743.50;5071395;28;21428;-65
2022/04/19 06:48:00;;;;;;;4.15;3.03;;;;;;;22.81;33.13;101735.66;5067246;28;20156;-65
2022/04/19 06:50:28;;;;;;;3.20;2.58;;;;;;;22.82;33.21;101740.00;5056206;28;20040;-65
2022/04/19 06:52:58;;;;;;;3.80;2.75;;;;;;;22.76;33.36;101735.34;5057235;28;20078;-64
2022/04/19 06:55:42;;;;;;;3.42;2.67;;;;;;;22.63;33.43;101735.13;5069430;28;20058;-64
2022/04/19 06:58:08;;;;;;;2.92;2.47;;;;;;;22.57;33.93;101735.81;5050529;28;20040;-65
2022/04/19 07:00:33;;;;;;;3.28;2.97;;;;;;;22.46;33.90;101736.25;5052896;28;20037;-65
2022/04/19 07:03:00;;;;;;;3.08;2.70;;;;;;;22.29;34.03;101746.13;5066631;28;20038;-67
2022/04/19 07:05:51;;;;;;;3.03;2.58;;;;;;;22.24;34.20;101740.47;5022044;28;20600;-67
2022/04/19 07:08:17;;;;;;;4.30;2.42;;;;;;;22.24;34.45;101746.63;5053173;28;20152;-67
2022/04/19 07:10:43;;;;;;;3.72;2.70;;;;;;;22.25;34.56;101748.28;5051949;28;20085;-67
2022/04/19 07:13:46;;;;;;;3.22;2.58;;;;;;;22.29;34.46;101754.91;5053303;28;20024;-68
2022/04/19 07:16:22;;;;;;;4.28;2.90;;;;;;;22.30;34.35;101747.78;5064091;28;20551;-68
2022/04/19 07:18:48;;;;;;;3.95;2.80;;;;;;;22.27;34.43;101746.31;5067404;28;20044;-68
2022/04/19 07:27:00;;;;;;;3.72;2.55;;;;;;;22.25;34.71;101758.06;5057256;28;20051;-68
2022/04/19 07:29:25;;;;;;;3.60;2.50;;;;;;;22.19;34.54;101753.44;5069301;28;20096;-68
2022/04/19 07:31:51;;;;;;;3.10;2.65;;;;;;;22.12;35.00;101747.19;5068301;28;20276;-68
2022/04/19 07:34:33;;;;;;;3.58;2.70;;;;;;;22.22;34.71;101764.53;5056828;28;20424;-68
2022/04/19 07:36:59;;;;;;;2.83;2.45;;;;;;;22.21;34.76;101764.72;5061332;28;20565;-67
2022/04/19 07:39:25;;;;;;;5.32;2.60;;;;;;;22.18;34.65;101759.75;5063813;28;20086;-68
2022/04/19 07:41:51;;;;;;;3.30;2.55;;;;;;;22.18;34.96;101763.25;5062969;28;20038;-68
2022/04/19 07:44:17;;;;;;;3.92;2.88;;;;;;;22.15;34.68;101765.41;5065963;28;20044;-68
2022/04/19 07:46:44;;;;;;;3.53;2.65;;;;;;;22.14;35.09;101764.59;5058978;28;20735;-68
2022/04/19 07:49:10;;;;;;;4.60;2.65;;;;;;;22.15;34.86;101768.06;5059165;28;20065;-68
2022/04/19 07:51:37;;;;;;;2.88;2.58;;;;;;;22.12;34.91;101765.75;5055146;28;20086;-68
2022/04/19 07:54:03;;;;;;;3.17;2.47;;;;;;;22.13;34.77;101768.25;5062205;28;20032;-65
2022/04/19 07:56:29;;;;;;;2.95;2.30;;;;;;;22.10;35.20;101771.25;5058489;28;20036;-66
2022/04/19 07:58:55;;;;;;;3.40;2.30;;;;;;;22.13;34.69;101765.59;5058273;28;20084;-66
2022/04/19 08:01:21;;;;;;;3.40;2.47;;;;;;;22.12;35.11;101766.59;5062834;28;20048;-66
2022/04/19 08:03:47;;;;;;;3.45;2.70;;;;;;;22.15;34.67;101770.72;5067075;28;20041;-66
2022/04/19 08:06:14;;;;;;;3.70;2.30;;;;;;;22.14;34.86;101771.72;5059945;28;20032;-68
2022/04/19 08:08:43;;;;;;;2.55;2.33;;;;;;;22.13;35.11;101770.06;5062384;28;20629;-66
2022/04/19 08:11:08;;;;;;;3.05;2.60;;;;;;;22.12;34.99;101771.91;5042555;28;20679;-65
2022/04/19 08:13:34;;;;;;;3.17;2.17;;;;;;;22.13;34.76;101759.47;5047865;28;20029;-66
2022/04/19 08:16:00;;;;;;;3.58;2.45;;;;;;;22.16;34.80;101767.06;5066713;28;20032;-68
2022/04/19 08:18:26;;;;;;;2.83;2.38;;;;;;;22.18;35.01;101765.06;5057531;28;20041;-68
2022/04/19 08:20:54;;;;;;;2.78;2.50;;;;;;;22.21;34.80;101767.38;5057762;28;20700;-66
2022/04/19 08:23:20;;;;;;;3.97;2.50;;;;;;;22.21;34.75;101762.88;5058459;28;20064;-68
2022/04/19 08:25:53;;;;;;;3.53;2.20;;;;;;;22.15;34.64;101749.50;5061306;28;20042;-66
2022/04/19 08:28:19;;;;;;;3.40;2.13;;;;;;;22.25;34.51;101766.00;5059293;28;20403;-65
2022/04/19 08:30:45;;;;;;;3.28;2.22;;;;;;;22.26;34.84;101757.91;5062737;28;20821;-68
2022/04/19 08:33:14;;;;;;;3.40;2.27;;;;;;;22.26;34.38;101765.00;5054281;28;20395;-68
2022/04/19 08:35:40;;;;;;;3.45;2.40;;;;;;;22.27;34.79;101767.53;5067993;28;20468;-67
2022/04/19 08:38:07;;;;;;;3.38;2.35;;;;;;;22.23;34.52;101760.88;5086079;28;20035;-67
2022/04/19 08:40:34;;;;;;;2.97;2.40;;;;;;;22.28;34.47;101763.03;5047044;28;20032;-68
2022/04/19 08:43:03;;;;;;;2.55;2.17;;;;;;;22.25;34.30;101771.31;5068726;28;20800;-67
2022/04/19 08:45:28;;;;;;;3.28;2.55;;;;;;;22.24;34.45;101767.84;5078216;28;20025;-67
2022/04/19 08:47:54;;;;;;;3.17;2.00;;;;;;;22.25;34.46;101758.06;5063776;28;20040;-67
2022/04/19 08:50:21;;;;;;;2.38;2.17;;;;;;;22.22;34.60;101769.03;5080261;28;20045;-68
2022/04/19 08:52:47;;;;;;;3.35;2.10;;;;;;;22.22;34.55;101766.38;5084777;28;20089;-67
2022/04/19 08:57:58;;;;;;;2.20;2.00;;;;;;;22.19;33.99;101774.69;5075339;28;20043;-67
2022/04/19 09:00:24;;;;;;;2.35;2.15;;;;;;;22.23;34.08;101773.31;5078586;28;20032;-67
2022/04/19 09:02:52;;;;;;;2.92;2.00;;;;;;;22.25;34.13;101771.31;5083058;28;20492;-67
2022/04/19 09:05:21;;;;;;;2.42;2.10;;;;;;;22.24;34.45;101761.72;5080559;28;20620;-67
2022/04/19 09:07:48;;;;;;;2.73;2.10;;;;;;;22.27;34.16;101762.22;5082394;28;20569;-67
2022/04/19 09:10:16;;;;;;;1.95;1.83;;;;;;;22.26;33.97;101768.53;5068483;28;20051;-67
2022/04/19 09:13:01;;;;;;;2.33;2.00;;;;;;;22.26;34.10;101763.22;5085222;28;20583;-67
2022/04/19 09:15:35;;;;;;;3.15;2.33;;;;;;;22.25;33.96;101766.00;5083706;28;20032;-67
2022/04/19 09:18:02;;;;;;;2.47;2.10;;;;;;;22.27;34.28;101766.69;5078460;28;20051;-68
2022/04/19 09:20:28;;;;;;;2.00;1.80;;;;;;;22.26;34.38;101770.31;5082767;28;20115;-67
2022/04/19 09:23:08;;;;;;;2.35;1.95;;;;;;;22.27;33.92;101766.69;5093542;28;20046;-67
2022/04/19 09:25:35;;;;;;;3.25;2.20;;;;;;;22.27;34.09;101764.03;5085134;28;20052;-67
2022/04/19 09:28:02;;;;;;;2.88;1.85;;;;;;;22.27;34.02;101766.69;5088413;28;20031;-67
2022/04/19 09:30:32;;;;;;;2.20;1.92;;;;;;;22.27;33.85;101762.22;5083541;28;20094;-67
2022/04/19 09:33:15;;;;;;;1.92;1.73;;;;;;;22.27;33.80;101762.22;5078407;28;20040;-68
2022/04/19 09:35:50;;;;;;;2.65;1.80;;;;;;;22.27;33.89;101769.34;5078860;28;20044;-69
2022/04/19 09:38:17;;;;;;;2.25;1.98;;;;;;;22.27;33.86;101742.81;5069652;28;20071;-67
2022/04/19 09:40:48;;;;;;;1.83;1.73;;;;;;;22.26;34.08;101749.94;5079685;28;20048;-67
2022/04/19 09:43:15;;;;;;;4.40;1.73;;;;;;;22.30;33.93;101753.06;5081590;28;20481;-67
2022/04/19 09:45:56;;;;;;;4.55;1.92;;;;;;;22.28;33.72;101755.09;5077508;28;20497;-66
2022/04/19 09:48:44;;;;;;;1.92;1.63;;;;;;;22.26;33.97;101747.28;5078530;28;20036;-67
2022/04/19 09:51:13;;;;;;;1.67;1.58;;;;;;;22.27;34.03;101753.44;5075267;28;20043;-68
2022/04/19 09:53:44;;;;;;;1.65;1.55;;;;;;;22.27;33.80;101754.25;5085789;28;20413;-67
2022/04/19 09:56:12;;;;;;;1.73;1.63;;;;;;;22.24;33.98;101751.09;5075129;28;20036;-68
2022/04/19 09:58:38;;;;;;;1.85;1.75;;;;;;;22.25;34.01;101752.75;5084478;28;20121;-68
2022/04/19 10:01:04;;;;;;;2.03;1.70;;;;;;;22.24;34.16;101740.47;5084680;28;20085;-68
2022/04/19 10:09:04;;;;;;;2.35;1.60;;;;;;;22.79;33.11;101742.13;5085596;28;20099;-67
2022/04/19 10:11:30;;;;;;;1.50;1.40;;;;;;;22.97;33.31;101742.69;5088076;28;20031;-68
2022/04/19 10:13:56;;;;;;;2.05;1.85;;;;;;;22.95;32.89;101730.59;5083501;28;20848;-68
2022/04/19 10:16:22;;;;;;;2.22;1.50;;;;;;;22.83;33.07;101725.72;5076741;28;20055;-67
2022/04/19 10:18:48;;;;;;;2.92;1.75;;;;;;;22.79;33.35;101742.97;5079663;28;20094;-68
2022/04/19 10:21:24;;;;;;;1.70;1.60;;;;;;;22.70;33.07;101738.72;5056855;28;20041;-68
2022/04/19 10:23:50;;;;;;;2.95;1.63;;;;;;;22.64;33.39;101739.44;5068753;28;20037;-68
2022/04/19 10:26:20;;;;;;;1.67;1.58;;;;;;;22.63;33.25;101736.97;5072751;28;20047;-68
2022/04/19 10:28:58;;;;;;;2.13;1.70;;;;;;;22.62;33.34;101744.06;5079968;28;20036;-68
2022/04/19 10:31:37;;;;;;;2.42;1.70;;;;;;;22.63;33.53;101736.97;5074955;28;20497;-68
2022/04/19 10:34:04;;;;;;;1.75;1.50;;;;;;;22.64;33.47;101733.31;5074882;28;20044;-68
2022/04/19 10:36:37;;;;;;;1.70;1.60;;;;;;;22.59;33.78;101732.00;5074356;28;20036;-68
2022/04/19 10:39:12;;;;;;;1.88;1.60;;;;;;;22.58;33.85;101730.34;5081043;28;20086;-68
2022/04/19 10:42:02;;;;;;;1.92;1.60;;;;;;;22.55;33.42;101713.94;5059366;28;20130;-67
2022/04/19 10:44:31;;;;;;;1.95;1.83;;;;;;;22.55;33.43;101730.69;5077356;28;20937;-67
2022/04/19 10:47:03;;;;;;;1.83;1.50;;;;;;;22.53;33.53;101727.38;5085964;28;20606;-66
2022/04/19 10:49:29;;;;;;;1.77;1.67;;;;;;;22.52;33.37;101728.41;5075657;28;20053;-67
2022/04/19 10:51:59;;;;;;;1.80;1.70;;;;;;;22.54;33.60;101731.69;5077680;28;20035;-67
2022/04/19 10:55:02;;;;;;;2.63;1.98;;;;;;;22.53;33.57;101730.03;5083704;28;20047;-67
2022/04/19 11:00:48;;;;;;;1.73;1.58;;;;;;;22.52;33.30;101719.59;5065658;28;20123;-67
2022/04/19 11:03:19;;;;;;;1.83;1.65;;;;;;;22.48;33.26;101720.97;5074547;28;20052;-67
2022/04/19 11:05:56;;;;;;;2.10;1.77;;;;;;;22.48;33.60;101726.28;5080741;28;20044;-67
2022/04/19 11:08:25;;;;;;;1.83;1.60;;;;;;;22.46;33.76;101718.50;5072665;28;20044;-67
2022/04/19 11:11:03;;;;;;;2.28;1.65;;;;;;;22.46;33.43;101722.97;5076957;28;20080;-68
2022/04/19 11:13:36;;;;;;;3.10;1.65;;;;;;;22.41;33.52;101723.47;5071887;28;20446;-67
2022/04/19 11:16:07;;;;;;;1.67;1.58;;;;;;;22.44;33.21;101725.81;5070389;28;20047;-68
2022/04/19 11:18:37;;;;;;;2.75;1.92;;;;;;;22.45;33.52;101723.97;5072647;28;20039;-65
2022/04/19 11:21:03;;;;;;;2.08;1.48;;;;;;;22.42;33.43;101719.81;5080192;28;20047;-67
2022/04/19 11:23:40;;;;;;;1.90;1.52;;;;;;;22.45;33.35;101724.81;5077654;28;20036;-68
2022/04/19 11:26:08;;;;;;;1.60;1.50;;;;;;;22.40;33.32;101721.81;5077565;28;20059;-68
2022/04/19 11:28:34;;;;;;;3.17;1.73;;;;;;;22.37;33.43;101716.88;5075118;28;20049;-68
2022/04/19 11:31:00;;;;;;;1.55;1.42;;;;;;;22.42;33.49;101727.78;5077895;28;20109;-68
2022/04/19 11:33:25;;;;;;;2.90;1.63;;;;;;;22.43;33.28;101726.78;5070144;28;20032;-68
2022/04/19 11:36:03;;;;;;;2.92;1.90;;;;;;;22.42;33.48;101722.47;5074955;28;20410;-68
2022/04/19 11:38:31;;;;;;;3.63;1.75;;;;;;;22.41;33.39;101723.47;5072262;28;20443;-68
2022/04/19 11:46:49;;;;;;;2.50;1.55;;;;;;;22.43;33.44;101713.50;5077712;28;20907;-67
2022/04/19 11:49:34;;;;;;;1.70;1.58;;;;;;;22.47;33.25;101717.50;5079685;28;20042;-68
2022/04/19 11:52:08;;;;;;;2.63;1.63;;;;;;;22.42;33.65;101719.81;5082696;28;20032;-68
2022/04/19 11:54:34;;;;;;;2.00;1.70;;;;;;;22.46;33.73;101715.84;5073030;28;20023;-68
2022/04/19 11:57:03;;;;;;;2.13;1.80;;;;;;;22.45;33.37;101716.00;5086009;28;20476;-68
2022/04/19 11:59:37;;;;;;;1.80;1.67;;;;;;;22.45;33.20;101718.66;5075171;28;20458;-68
2022/04/19 12:02:05;;;;;;;2.45;1.40;;;;;;;22.47;33.18;101711.34;5078446;28;20035;-68
2022/04/19 12:04:30;;;;;;;2.67;1.60;;;;;;;22.48;33.27;101713.00;5068313;28;20113;-68
2022/04/19 12:07:01;;;;;;;1.83;1.70;;;;;;;22.46;33.42;101715.00;5081219;28;20794;-68
2022/04/19 12:09:29;;;;;;;1.75;1.50;;;;;;;22.43;33.13;101710.84;5078607;28;20047;-68
2022/04/19 12:11:55;;;;;;;2.28;1.70;;;;;;;22.48;33.28;101718.31;5079413;28;20041;-67